sensor_id;sensor_type;location;lat;lon;timestamp;P1;durP1;ratioP1;P2;durP2;ratioP2
59876;SDS011;74472;51.140;17.184;2024-01-11T00:02:12;338.77;;;146.60;;
59876;SDS011;74472;51.140;17.184;2024-01-11T00:04:48;330.10;;;141.40;;
59876;SDS011;74472;51.140;17.184;2024-01-11T00:07:13;307.48;;;140.68;;
59876;SDS011;74472;51.140;17.184;2024-01-11T00:09:39;306.73;;;139.50;;
59876;SDS011;74472;51.140;17.184;2024-01-11T00:12:06;291.85;;;137.85;;
59876;SDS011;74472;51.140;17.184;2024-01-11T00:14:32;302.70;;;134.70;;
59876;SDS011;74472;51.140;17.184;2024-01-11T00:16:57;322.83;;;138.73;;
59876;SDS011;74472;51.140;17.184;2024-01-11T00:19:23;339.23;;;150.30;;
59876;SDS011;74472;51.140;17.184;2024-01-11T00:21:48;390.95;;;174.23;;
59876;SDS011;74472;51.140;17.184;2024-01-11T00:24:13;390.67;;;171.30;;
59876;SDS011;74472;51.140;17.184;2024-01-11T00:26:39;395.20;;;176.68;;
59876;SDS011;74472;51.140;17.184;2024-01-11T00:29:04;376.52;;;163.45;;
59876;SDS011;74472;51.140;17.184;2024-01-11T00:31:32;368.00;;;164.55;;
59876;SDS011;74472;51.140;17.184;2024-01-11T00:33:57;375.92;;;168.23;;
59876;SDS011;74472;51.140;17.184;2024-01-11T00:36:22;373.80;;;166.93;;
59876;SDS011;74472;51.140;17.184;2024-01-11T00:38:48;368.00;;;162.07;;
59876;SDS011;74472;51.140;17.184;2024-01-11T00:41:13;349.35;;;151.98;;
59876;SDS011;74472;51.140;17.184;2024-01-11T00:43:38;346.70;;;153.23;;
59876;SDS011;74472;51.140;17.184;2024-01-11T00:46:08;330.92;;;143.65;;
59876;SDS011;74472;51.140;17.184;2024-01-11T00:48:33;325.52;;;146.20;;
59876;SDS011;74472;51.140;17.184;2024-01-11T00:50:58;341.70;;;147.85;;
59876;SDS011;74472;51.140;17.184;2024-01-11T00:53:24;317.98;;;148.18;;
59876;SDS011;74472;51.140;17.184;2024-01-11T00:55:49;320.70;;;144.43;;
59876;SDS011;74472;51.140;17.184;2024-01-11T00:58:15;307.63;;;139.25;;
59876;SDS011;74472;51.140;17.184;2024-01-11T01:00:41;299.60;;;134.55;;
59876;SDS011;74472;51.140;17.184;2024-01-11T01:03:06;319.80;;;139.30;;
59876;SDS011;74472;51.140;17.184;2024-01-11T01:05:31;313.58;;;138.90;;
59876;SDS011;74472;51.140;17.184;2024-01-11T01:07:57;344.13;;;146.73;;
59876;SDS011;74472;51.140;17.184;2024-01-11T01:10:22;337.75;;;141.27;;
59876;SDS011;74472;51.140;17.184;2024-01-11T01:12:48;340.05;;;144.27;;
59876;SDS011;74472;51.140;17.184;2024-01-11T01:15:13;335.13;;;143.43;;
59876;SDS011;74472;51.140;17.184;2024-01-11T01:17:39;344.02;;;154.25;;
59876;SDS011;74472;51.140;17.184;2024-01-11T01:20:04;353.30;;;155.38;;
59876;SDS011;74472;51.140;17.184;2024-01-11T01:22:30;366.65;;;161.27;;
59876;SDS011;74472;51.140;17.184;2024-01-11T01:24:56;348.13;;;157.90;;
59876;SDS011;74472;51.140;17.184;2024-01-11T01:27:21;372.83;;;160.18;;
59876;SDS011;74472;51.140;17.184;2024-01-11T01:29:46;367.65;;;162.02;;
59876;SDS011;74472;51.140;17.184;2024-01-11T01:32:11;364.17;;;159.63;;
59876;SDS011;74472;51.140;17.184;2024-01-11T01:34:37;362.45;;;158.63;;
59876;SDS011;74472;51.140;17.184;2024-01-11T01:37:02;346.02;;;153.07;;
59876;SDS011;74472;51.140;17.184;2024-01-11T01:39:28;325.88;;;142.93;;
59876;SDS011;74472;51.140;17.184;2024-01-11T01:41:53;295.98;;;128.23;;
59876;SDS011;74472;51.140;17.184;2024-01-11T01:44:18;290.33;;;131.30;;
59876;SDS011;74472;51.140;17.184;2024-01-11T01:46:43;270.23;;;118.55;;
59876;SDS011;74472;51.140;17.184;2024-01-11T01:49:09;280.80;;;125.90;;
59876;SDS011;74472;51.140;17.184;2024-01-11T01:51:36;254.82;;;116.82;;
59876;SDS011;74472;51.140;17.184;2024-01-11T01:54:02;256.90;;;114.93;;
59876;SDS011;74472;51.140;17.184;2024-01-11T01:56:28;264.20;;;117.20;;
59876;SDS011;74472;51.140;17.184;2024-01-11T01:58:54;264.73;;;112.95;;
59876;SDS011;74472;51.140;17.184;2024-01-11T02:01:20;257.70;;;116.25;;
59876;SDS011;74472;51.140;17.184;2024-01-11T02:03:47;257.80;;;116.20;;
59876;SDS011;74472;51.140;17.184;2024-01-11T02:06:14;259.55;;;112.57;;
59876;SDS011;74472;51.140;17.184;2024-01-11T02:08:41;251.30;;;114.13;;
59876;SDS011;74472;51.140;17.184;2024-01-11T02:11:08;262.38;;;117.95;;
59876;SDS011;74472;51.140;17.184;2024-01-11T02:13:35;259.70;;;116.60;;
59876;SDS011;74472;51.140;17.184;2024-01-11T02:16:00;257.60;;;113.30;;
59876;SDS011;74472;51.140;17.184;2024-01-11T02:18:26;277.10;;;114.57;;
59876;SDS011;74472;51.140;17.184;2024-01-11T02:20:51;278.38;;;117.13;;
59876;SDS011;74472;51.140;17.184;2024-01-11T02:23:20;259.50;;;113.22;;
59876;SDS011;74472;51.140;17.184;2024-01-11T02:28:14;256.20;;;108.97;;
59876;SDS011;74472;51.140;17.184;2024-01-11T02:30:39;254.20;;;109.93;;
59876;SDS011;74472;51.140;17.184;2024-01-11T02:33:05;252.45;;;112.68;;
59876;SDS011;74472;51.140;17.184;2024-01-11T02:35:30;267.77;;;119.95;;
59876;SDS011;74472;51.140;17.184;2024-01-11T02:37:57;264.75;;;114.65;;
59876;SDS011;74472;51.140;17.184;2024-01-11T02:40:24;255.38;;;110.43;;
59876;SDS011;74472;51.140;17.184;2024-01-11T02:42:51;245.88;;;109.90;;
59876;SDS011;74472;51.140;17.184;2024-01-11T02:45:16;237.27;;;105.65;;
59876;SDS011;74472;51.140;17.184;2024-01-11T02:47:41;244.07;;;111.57;;
59876;SDS011;74472;51.140;17.184;2024-01-11T02:50:07;255.57;;;112.70;;
59876;SDS011;74472;51.140;17.184;2024-01-11T02:52:33;243.57;;;105.55;;
59876;SDS011;74472;51.140;17.184;2024-01-11T02:54:59;252.35;;;112.13;;
59876;SDS011;74472;51.140;17.184;2024-01-11T02:57:24;244.52;;;112.32;;
59876;SDS011;74472;51.140;17.184;2024-01-11T02:59:50;246.75;;;101.50;;
59876;SDS011;74472;51.140;17.184;2024-01-11T03:02:16;241.25;;;108.10;;
59876;SDS011;74472;51.140;17.184;2024-01-11T03:04:41;239.70;;;108.00;;
59876;SDS011;74472;51.140;17.184;2024-01-11T03:07:06;254.02;;;109.82;;
59876;SDS011;74472;51.140;17.184;2024-01-11T03:09:32;256.55;;;114.93;;
59876;SDS011;74472;51.140;17.184;2024-01-11T03:11:58;250.30;;;113.57;;
59876;SDS011;74472;51.140;17.184;2024-01-11T03:14:23;231.40;;;105.35;;
59876;SDS011;74472;51.140;17.184;2024-01-11T03:16:49;224.32;;;106.30;;
59876;SDS011;74472;51.140;17.184;2024-01-11T03:19:14;242.40;;;107.82;;
59876;SDS011;74472;51.140;17.184;2024-01-11T03:21:43;250.82;;;107.28;;
59876;SDS011;74472;51.140;17.184;2024-01-11T03:24:08;236.98;;;104.65;;
59876;SDS011;74472;51.140;17.184;2024-01-11T03:26:34;240.82;;;100.15;;
59876;SDS011;74472;51.140;17.184;2024-01-11T03:28:59;247.43;;;103.15;;
59876;SDS011;74472;51.140;17.184;2024-01-11T03:31:24;227.95;;;103.05;;
59876;SDS011;74472;51.140;17.184;2024-01-11T03:33:50;232.45;;;103.97;;
59876;SDS011;74472;51.140;17.184;2024-01-11T03:36:15;219.60;;;97.88;;
59876;SDS011;74472;51.140;17.184;2024-01-11T03:38:40;239.32;;;99.10;;
59876;SDS011;74472;51.140;17.184;2024-01-11T03:41:09;259.58;;;112.38;;
59876;SDS011;74472;51.140;17.184;2024-01-11T03:43:37;256.73;;;108.80;;
59876;SDS011;74472;51.140;17.184;2024-01-11T03:46:03;283.23;;;122.40;;
59876;SDS011;74472;51.140;17.184;2024-01-11T03:48:28;301.17;;;126.40;;
59876;SDS011;74472;51.140;17.184;2024-01-11T03:50:55;271.20;;;119.90;;
59876;SDS011;74472;51.140;17.184;2024-01-11T03:53:20;239.48;;;104.93;;
59876;SDS011;74472;51.140;17.184;2024-01-11T03:55:45;213.20;;;95.50;;
59876;SDS011;74472;51.140;17.184;2024-01-11T03:58:11;204.30;;;93.35;;
59876;SDS011;74472;51.140;17.184;2024-01-11T04:00:36;223.93;;;99.50;;
59876;SDS011;74472;51.140;17.184;2024-01-11T04:03:02;241.07;;;110.55;;
59876;SDS011;74472;51.140;17.184;2024-01-11T04:05:27;216.88;;;95.88;;
59876;SDS011;74472;51.140;17.184;2024-01-11T04:07:53;215.82;;;95.32;;
59876;SDS011;74472;51.140;17.184;2024-01-11T04:10:18;218.45;;;99.10;;
59876;SDS011;74472;51.140;17.184;2024-01-11T04:12:43;208.48;;;94.35;;
59876;SDS011;74472;51.140;17.184;2024-01-11T04:15:11;220.02;;;95.75;;
59876;SDS011;74472;51.140;17.184;2024-01-11T04:17:38;216.82;;;95.22;;
59876;SDS011;74472;51.140;17.184;2024-01-11T04:20:04;219.32;;;94.82;;
59876;SDS011;74472;51.140;17.184;2024-01-11T04:22:30;231.95;;;105.00;;
59876;SDS011;74472;51.140;17.184;2024-01-11T04:24:55;228.23;;;101.65;;
59876;SDS011;74472;51.140;17.184;2024-01-11T04:27:21;218.38;;;94.13;;
59876;SDS011;74472;51.140;17.184;2024-01-11T04:29:46;217.55;;;97.45;;
59876;SDS011;74472;51.140;17.184;2024-01-11T04:32:11;229.88;;;94.05;;
59876;SDS011;74472;51.140;17.184;2024-01-11T04:34:37;215.90;;;94.80;;
59876;SDS011;74472;51.140;17.184;2024-01-11T04:37:02;206.80;;;93.68;;
59876;SDS011;74472;51.140;17.184;2024-01-11T04:39:27;197.15;;;86.95;;
59876;SDS011;74472;51.140;17.184;2024-01-11T04:41:53;205.60;;;94.70;;
59876;SDS011;74472;51.140;17.184;2024-01-11T04:44:18;220.98;;;97.50;;
59876;SDS011;74472;51.140;17.184;2024-01-11T04:46:43;209.48;;;93.00;;
59876;SDS011;74472;51.140;17.184;2024-01-11T04:49:09;219.07;;;91.50;;
59876;SDS011;74472;51.140;17.184;2024-01-11T04:51:34;206.05;;;87.50;;
59876;SDS011;74472;51.140;17.184;2024-01-11T04:53:59;204.73;;;87.15;;
59876;SDS011;74472;51.140;17.184;2024-01-11T04:56:25;192.65;;;84.70;;
59876;SDS011;74472;51.140;17.184;2024-01-11T04:58:51;190.70;;;82.00;;
59876;SDS011;74472;51.140;17.184;2024-01-11T05:01:16;196.32;;;87.65;;
59876;SDS011;74472;51.140;17.184;2024-01-11T05:03:43;173.60;;;79.75;;
59876;SDS011;74472;51.140;17.184;2024-01-11T05:06:17;180.18;;;78.97;;
59876;SDS011;74472;51.140;17.184;2024-01-11T05:08:43;171.35;;;78.82;;
59876;SDS011;74472;51.140;17.184;2024-01-11T05:11:16;177.60;;;80.05;;
59876;SDS011;74472;51.140;17.184;2024-01-11T05:13:42;179.85;;;78.45;;
59876;SDS011;74472;51.140;17.184;2024-01-11T05:16:15;177.35;;;77.22;;
59876;SDS011;74472;51.140;17.184;2024-01-11T05:18:44;170.23;;;77.57;;
59876;SDS011;74472;51.140;17.184;2024-01-11T05:21:09;156.98;;;73.88;;
59876;SDS011;74472;51.140;17.184;2024-01-11T05:23:35;167.45;;;77.35;;
59876;SDS011;74472;51.140;17.184;2024-01-11T05:26:00;174.75;;;77.00;;
59876;SDS011;74472;51.140;17.184;2024-01-11T05:28:25;165.75;;;74.45;;
59876;SDS011;74472;51.140;17.184;2024-01-11T05:30:51;160.07;;;70.28;;
59876;SDS011;74472;51.140;17.184;2024-01-11T05:33:16;161.07;;;72.55;;
59876;SDS011;74472;51.140;17.184;2024-01-11T05:35:44;170.13;;;73.53;;
59876;SDS011;74472;51.140;17.184;2024-01-11T05:38:09;167.27;;;76.13;;
59876;SDS011;74472;51.140;17.184;2024-01-11T05:40:37;160.25;;;77.50;;
59876;SDS011;74472;51.140;17.184;2024-01-11T05:43:03;154.50;;;69.10;;
59876;SDS011;74472;51.140;17.184;2024-01-11T05:45:28;153.18;;;72.97;;
59876;SDS011;74472;51.140;17.184;2024-01-11T05:47:54;159.50;;;68.18;;
59876;SDS011;74472;51.140;17.184;2024-01-11T05:50:19;163.60;;;74.28;;
59876;SDS011;74472;51.140;17.184;2024-01-11T05:52:45;162.60;;;71.65;;
59876;SDS011;74472;51.140;17.184;2024-01-11T05:55:13;169.40;;;71.70;;
59876;SDS011;74472;51.140;17.184;2024-01-11T05:57:38;166.77;;;71.28;;
59876;SDS011;74472;51.140;17.184;2024-01-11T06:00:04;158.02;;;72.88;;
59876;SDS011;74472;51.140;17.184;2024-01-11T06:02:32;159.48;;;73.45;;
59876;SDS011;74472;51.140;17.184;2024-01-11T06:04:57;166.35;;;73.05;;
59876;SDS011;74472;51.140;17.184;2024-01-11T06:07:22;159.95;;;69.43;;
59876;SDS011;74472;51.140;17.184;2024-01-11T06:09:48;159.05;;;74.47;;
59876;SDS011;74472;51.140;17.184;2024-01-11T06:12:14;156.38;;;69.90;;
59876;SDS011;74472;51.140;17.184;2024-01-11T06:14:39;163.15;;;70.30;;
59876;SDS011;74472;51.140;17.184;2024-01-11T06:17:04;163.82;;;69.30;;
59876;SDS011;74472;51.140;17.184;2024-01-11T06:19:30;157.18;;;69.57;;
59876;SDS011;74472;51.140;17.184;2024-01-11T06:21:55;148.63;;;71.88;;
59876;SDS011;74472;51.140;17.184;2024-01-11T06:24:20;141.68;;;62.22;;
59876;SDS011;74472;51.140;17.184;2024-01-11T06:26:46;147.88;;;69.43;;
59876;SDS011;74472;51.140;17.184;2024-01-11T06:29:11;156.57;;;69.45;;
59876;SDS011;74472;51.140;17.184;2024-01-11T06:31:36;143.93;;;64.75;;
59876;SDS011;74472;51.140;17.184;2024-01-11T06:34:02;141.88;;;63.90;;
59876;SDS011;74472;51.140;17.184;2024-01-11T06:36:27;143.20;;;62.95;;
59876;SDS011;74472;51.140;17.184;2024-01-11T06:38:53;137.77;;;64.50;;
59876;SDS011;74472;51.140;17.184;2024-01-11T06:41:18;140.32;;;65.50;;
59876;SDS011;74472;51.140;17.184;2024-01-11T06:43:43;131.32;;;60.63;;
59876;SDS011;74472;51.140;17.184;2024-01-11T06:46:09;142.63;;;62.72;;
59876;SDS011;74472;51.140;17.184;2024-01-11T06:48:35;138.45;;;65.28;;
59876;SDS011;74472;51.140;17.184;2024-01-11T06:51:01;133.23;;;63.20;;
59876;SDS011;74472;51.140;17.184;2024-01-11T06:53:26;137.68;;;65.07;;
59876;SDS011;74472;51.140;17.184;2024-01-11T06:55:51;127.90;;;60.92;;
59876;SDS011;74472;51.140;17.184;2024-01-11T06:58:22;124.28;;;61.42;;
59876;SDS011;74472;51.140;17.184;2024-01-11T07:00:48;121.50;;;55.75;;
59876;SDS011;74472;51.140;17.184;2024-01-11T07:03:14;125.40;;;55.90;;
59876;SDS011;74472;51.140;17.184;2024-01-11T07:05:40;119.35;;;56.15;;
59876;SDS011;74472;51.140;17.184;2024-01-11T07:08:05;121.43;;;56.10;;
59876;SDS011;74472;51.140;17.184;2024-01-11T07:10:30;109.45;;;54.13;;
59876;SDS011;74472;51.140;17.184;2024-01-11T07:12:57;114.38;;;51.47;;
59876;SDS011;74472;51.140;17.184;2024-01-11T07:15:22;111.35;;;49.40;;
59876;SDS011;74472;51.140;17.184;2024-01-11T07:17:50;120.70;;;51.75;;
59876;SDS011;74472;51.140;17.184;2024-01-11T07:20:15;113.03;;;52.22;;
59876;SDS011;74472;51.140;17.184;2024-01-11T07:22:42;112.75;;;49.53;;
59876;SDS011;74472;51.140;17.184;2024-01-11T07:25:07;96.35;;;46.03;;
59876;SDS011;74472;51.140;17.184;2024-01-11T07:27:33;107.40;;;46.67;;
59876;SDS011;74472;51.140;17.184;2024-01-11T07:29:59;100.57;;;44.35;;
59876;SDS011;74472;51.140;17.184;2024-01-11T07:32:28;108.60;;;48.45;;
59876;SDS011;74472;51.140;17.184;2024-01-11T07:34:53;99.35;;;44.47;;
59876;SDS011;74472;51.140;17.184;2024-01-11T07:37:18;101.60;;;44.72;;
59876;SDS011;74472;51.140;17.184;2024-01-11T07:39:44;91.15;;;44.42;;
59876;SDS011;74472;51.140;17.184;2024-01-11T07:42:09;99.20;;;47.78;;
59876;SDS011;74472;51.140;17.184;2024-01-11T07:44:34;96.68;;;45.95;;
59876;SDS011;74472;51.140;17.184;2024-01-11T07:46:59;90.40;;;43.70;;
59876;SDS011;74472;51.140;17.184;2024-01-11T07:49:25;92.07;;;40.88;;
59876;SDS011;74472;51.140;17.184;2024-01-11T07:51:51;91.38;;;40.33;;
59876;SDS011;74472;51.140;17.184;2024-01-11T07:54:16;78.68;;;38.08;;
59876;SDS011;74472;51.140;17.184;2024-01-11T07:56:42;80.38;;;39.08;;
59876;SDS011;74472;51.140;17.184;2024-01-11T07:59:07;83.50;;;39.65;;
59876;SDS011;74472;51.140;17.184;2024-01-11T08:01:32;83.53;;;39.13;;
59876;SDS011;74472;51.140;17.184;2024-01-11T08:04:00;92.85;;;39.83;;
59876;SDS011;74472;51.140;17.184;2024-01-11T08:06:27;82.10;;;37.45;;
59876;SDS011;74472;51.140;17.184;2024-01-11T08:08:53;83.20;;;40.58;;
59876;SDS011;74472;51.140;17.184;2024-01-11T08:11:18;81.18;;;38.50;;
59876;SDS011;74472;51.140;17.184;2024-01-11T08:13:44;87.65;;;41.90;;
59876;SDS011;74472;51.140;17.184;2024-01-11T08:16:14;92.57;;;40.28;;
59876;SDS011;74472;51.140;17.184;2024-01-11T08:18:40;86.95;;;42.70;;
59876;SDS011;74472;51.140;17.184;2024-01-11T08:21:05;87.00;;;38.65;;
59876;SDS011;74472;51.140;17.184;2024-01-11T08:23:34;84.63;;;38.42;;
59876;SDS011;74472;51.140;17.184;2024-01-11T08:25:59;88.03;;;41.70;;
59876;SDS011;74472;51.140;17.184;2024-01-11T08:28:25;86.03;;;37.45;;
59876;SDS011;74472;51.140;17.184;2024-01-11T08:30:50;81.32;;;38.55;;
59876;SDS011;74472;51.140;17.184;2024-01-11T08:33:15;86.85;;;40.90;;
59876;SDS011;74472;51.140;17.184;2024-01-11T08:35:41;99.25;;;42.20;;
59876;SDS011;74472;51.140;17.184;2024-01-11T08:38:06;235.70;;;90.55;;
59876;SDS011;74472;51.140;17.184;2024-01-11T08:40:31;97.20;;;41.83;;
59876;SDS011;74472;51.140;17.184;2024-01-11T08:42:57;75.97;;;33.47;;
59876;SDS011;74472;51.140;17.184;2024-01-11T08:45:23;80.85;;;39.08;;
59876;SDS011;74472;51.140;17.184;2024-01-11T08:47:48;70.05;;;33.72;;
59876;SDS011;74472;51.140;17.184;2024-01-11T08:50:14;71.75;;;35.72;;
59876;SDS011;74472;51.140;17.184;2024-01-11T08:52:40;75.68;;;34.55;;
59876;SDS011;74472;51.140;17.184;2024-01-11T08:55:06;60.10;;;33.38;;
59876;SDS011;74472;51.140;17.184;2024-01-11T08:57:32;62.88;;;32.78;;
59876;SDS011;74472;51.140;17.184;2024-01-11T08:59:57;69.07;;;33.35;;
59876;SDS011;74472;51.140;17.184;2024-01-11T09:02:23;75.15;;;35.35;;
59876;SDS011;74472;51.140;17.184;2024-01-11T09:04:48;70.30;;;30.00;;
59876;SDS011;74472;51.140;17.184;2024-01-11T09:07:14;66.07;;;31.40;;
59876;SDS011;74472;51.140;17.184;2024-01-11T09:09:40;66.30;;;30.50;;
59876;SDS011;74472;51.140;17.184;2024-01-11T09:12:06;70.22;;;31.23;;
59876;SDS011;74472;51.140;17.184;2024-01-11T09:14:31;63.33;;;31.42;;
59876;SDS011;74472;51.140;17.184;2024-01-11T09:16:57;63.45;;;28.13;;
59876;SDS011;74472;51.140;17.184;2024-01-11T09:19:22;56.08;;;29.48;;
59876;SDS011;74472;51.140;17.184;2024-01-11T09:21:48;62.65;;;29.05;;
59876;SDS011;74472;51.140;17.184;2024-01-11T09:24:13;69.90;;;30.10;;
59876;SDS011;74472;51.140;17.184;2024-01-11T09:26:39;56.88;;;29.83;;
59876;SDS011;74472;51.140;17.184;2024-01-11T09:29:04;58.95;;;28.85;;
59876;SDS011;74472;51.140;17.184;2024-01-11T09:31:30;54.08;;;27.52;;
59876;SDS011;74472;51.140;17.184;2024-01-11T09:33:55;58.97;;;28.63;;
59876;SDS011;74472;51.140;17.184;2024-01-11T09:36:22;59.42;;;27.08;;
59876;SDS011;74472;51.140;17.184;2024-01-11T09:38:47;61.30;;;27.90;;
59876;SDS011;74472;51.140;17.184;2024-01-11T09:41:13;59.63;;;30.40;;
59876;SDS011;74472;51.140;17.184;2024-01-11T09:43:40;66.32;;;29.65;;
59876;SDS011;74472;51.140;17.184;2024-01-11T09:46:07;66.13;;;31.23;;
59876;SDS011;74472;51.140;17.184;2024-01-11T09:48:34;64.38;;;31.63;;
59876;SDS011;74472;51.140;17.184;2024-01-11T09:51:01;62.85;;;29.27;;
59876;SDS011;74472;51.140;17.184;2024-01-11T09:53:28;58.83;;;29.02;;
59876;SDS011;74472;51.140;17.184;2024-01-11T09:55:56;57.92;;;26.65;;
59876;SDS011;74472;51.140;17.184;2024-01-11T09:58:23;56.03;;;28.58;;
59876;SDS011;74472;51.140;17.184;2024-01-11T10:00:49;54.10;;;26.70;;
59876;SDS011;74472;51.140;17.184;2024-01-11T10:03:19;59.88;;;28.15;;
59876;SDS011;74472;51.140;17.184;2024-01-11T10:05:45;56.05;;;26.13;;
59876;SDS011;74472;51.140;17.184;2024-01-11T10:08:14;59.05;;;25.85;;
59876;SDS011;74472;51.140;17.184;2024-01-11T10:10:39;59.10;;;30.02;;
59876;SDS011;74472;51.140;17.184;2024-01-11T10:13:05;61.42;;;28.77;;
59876;SDS011;74472;51.140;17.184;2024-01-11T10:15:30;58.13;;;28.80;;
59876;SDS011;74472;51.140;17.184;2024-01-11T10:17:55;56.25;;;28.25;;
59876;SDS011;74472;51.140;17.184;2024-01-11T10:20:21;52.55;;;25.58;;
59876;SDS011;74472;51.140;17.184;2024-01-11T10:22:48;47.72;;;23.98;;
59876;SDS011;74472;51.140;17.184;2024-01-11T10:25:15;66.90;;;34.30;;
59876;SDS011;74472;51.140;17.184;2024-01-11T10:27:43;61.85;;;28.88;;
59876;SDS011;74472;51.140;17.184;2024-01-11T10:30:10;53.05;;;26.27;;
59876;SDS011;74472;51.140;17.184;2024-01-11T10:32:44;51.58;;;26.10;;
59876;SDS011;74472;51.140;17.184;2024-01-11T10:35:10;49.75;;;25.70;;
59876;SDS011;74472;51.140;17.184;2024-01-11T10:37:35;52.38;;;24.90;;
59876;SDS011;74472;51.140;17.184;2024-01-11T10:40:05;50.25;;;27.70;;
59876;SDS011;74472;51.140;17.184;2024-01-11T10:42:34;45.55;;;24.25;;
59876;SDS011;74472;51.140;17.184;2024-01-11T10:45:02;52.13;;;24.88;;
59876;SDS011;74472;51.140;17.184;2024-01-11T10:47:30;45.67;;;22.95;;
59876;SDS011;74472;51.140;17.184;2024-01-11T10:49:57;59.10;;;28.85;;
59876;SDS011;74472;51.140;17.184;2024-01-11T10:52:27;43.47;;;22.77;;
59876;SDS011;74472;51.140;17.184;2024-01-11T10:54:59;44.70;;;21.23;;
59876;SDS011;74472;51.140;17.184;2024-01-11T10:57:25;45.30;;;24.05;;
59876;SDS011;74472;51.140;17.184;2024-01-11T10:59:53;42.90;;;21.20;;
59876;SDS011;74472;51.140;17.184;2024-01-11T11:02:20;45.50;;;22.90;;
59876;SDS011;74472;51.140;17.184;2024-01-11T11:04:47;46.22;;;22.30;;
59876;SDS011;74472;51.140;17.184;2024-01-11T11:07:16;47.05;;;22.27;;
59876;SDS011;74472;51.140;17.184;2024-01-11T11:09:43;41.17;;;21.20;;
59876;SDS011;74472;51.140;17.184;2024-01-11T11:12:10;196.45;;;71.00;;
59876;SDS011;74472;51.140;17.184;2024-01-11T11:14:36;237.52;;;98.32;;
59876;SDS011;74472;51.140;17.184;2024-01-11T11:17:01;48.63;;;25.95;;
59876;SDS011;74472;51.140;17.184;2024-01-11T11:19:27;46.85;;;24.02;;
59876;SDS011;74472;51.140;17.184;2024-01-11T11:21:53;55.40;;;28.27;;
59876;SDS011;74472;51.140;17.184;2024-01-11T11:24:19;51.58;;;25.33;;
59876;SDS011;74472;51.140;17.184;2024-01-11T11:26:44;40.30;;;20.45;;
59876;SDS011;74472;51.140;17.184;2024-01-11T11:29:10;39.80;;;20.67;;
59876;SDS011;74472;51.140;17.184;2024-01-11T11:34:02;42.83;;;25.65;;
59876;SDS011;74472;51.140;17.184;2024-01-11T11:36:30;39.53;;;20.55;;
59876;SDS011;74472;51.140;17.184;2024-01-11T11:38:59;44.15;;;21.83;;
59876;SDS011;74472;51.140;17.184;2024-01-11T11:41:26;48.50;;;20.38;;
59876;SDS011;74472;51.140;17.184;2024-01-11T11:43:52;49.85;;;22.33;;
59876;SDS011;74472;51.140;17.184;2024-01-11T11:46:17;48.78;;;20.55;;
59876;SDS011;74472;51.140;17.184;2024-01-11T11:48:48;41.05;;;21.20;;
59876;SDS011;74472;51.140;17.184;2024-01-11T11:51:16;43.45;;;22.45;;
59876;SDS011;74472;51.140;17.184;2024-01-11T11:53:46;59.50;;;29.23;;
59876;SDS011;74472;51.140;17.184;2024-01-11T11:56:13;44.38;;;23.75;;
59876;SDS011;74472;51.140;17.184;2024-01-11T11:58:41;59.50;;;27.70;;
59876;SDS011;74472;51.140;17.184;2024-01-11T12:01:08;105.05;;;44.75;;
59876;SDS011;74472;51.140;17.184;2024-01-11T12:03:34;54.05;;;27.40;;
59876;SDS011;74472;51.140;17.184;2024-01-11T12:06:02;62.70;;;30.60;;
59876;SDS011;74472;51.140;17.184;2024-01-11T12:08:28;103.78;;;34.78;;
59876;SDS011;74472;51.140;17.184;2024-01-11T12:10:54;99.32;;;42.75;;
59876;SDS011;74472;51.140;17.184;2024-01-11T12:13:20;55.08;;;24.50;;
59876;SDS011;74472;51.140;17.184;2024-01-11T12:15:46;56.45;;;28.65;;
59876;SDS011;74472;51.140;17.184;2024-01-11T12:18:11;94.93;;;39.65;;
59876;SDS011;74472;51.140;17.184;2024-01-11T12:20:37;90.18;;;39.08;;
59876;SDS011;74472;51.140;17.184;2024-01-11T12:23:02;53.42;;;26.92;;
59876;SDS011;74472;51.140;17.184;2024-01-11T12:25:28;52.00;;;27.08;;
59876;SDS011;74472;51.140;17.184;2024-01-11T12:27:54;62.35;;;31.38;;
59876;SDS011;74472;51.140;17.184;2024-01-11T12:30:23;51.65;;;21.73;;
59876;SDS011;74472;51.140;17.184;2024-01-11T12:32:58;64.30;;;27.70;;
59876;SDS011;74472;51.140;17.184;2024-01-11T12:35:26;48.50;;;24.67;;
59876;SDS011;74472;51.140;17.184;2024-01-11T12:37:59;51.15;;;27.73;;
59876;SDS011;74472;51.140;17.184;2024-01-11T12:40:28;52.22;;;28.52;;
59876;SDS011;74472;51.140;17.184;2024-01-11T12:43:00;44.65;;;23.52;;
59876;SDS011;74472;51.140;17.184;2024-01-11T12:45:26;51.47;;;27.30;;
59876;SDS011;74472;51.140;17.184;2024-01-11T12:47:52;67.70;;;29.40;;
59876;SDS011;74472;51.140;17.184;2024-01-11T12:50:19;51.08;;;25.00;;
59876;SDS011;74472;51.140;17.184;2024-01-11T12:52:45;47.83;;;26.88;;
59876;SDS011;74472;51.140;17.184;2024-01-11T12:55:18;44.90;;;25.75;;
59876;SDS011;74472;51.140;17.184;2024-01-11T12:57:44;47.97;;;25.10;;
59876;SDS011;74472;51.140;17.184;2024-01-11T13:00:10;57.63;;;29.55;;
59876;SDS011;74472;51.140;17.184;2024-01-11T13:02:36;65.43;;;31.10;;
59876;SDS011;74472;51.140;17.184;2024-01-11T13:05:02;59.83;;;27.17;;
59876;SDS011;74472;51.140;17.184;2024-01-11T13:07:28;128.30;;;54.03;;
59876;SDS011;74472;51.140;17.184;2024-01-11T13:09:54;49.53;;;24.15;;
59876;SDS011;74472;51.140;17.184;2024-01-11T13:12:19;230.57;;;88.22;;
59876;SDS011;74472;51.140;17.184;2024-01-11T13:14:46;92.28;;;40.42;;
59876;SDS011;74472;51.140;17.184;2024-01-11T13:17:12;154.75;;;59.67;;
59876;SDS011;74472;51.140;17.184;2024-01-11T13:19:37;67.18;;;28.75;;
59876;SDS011;74472;51.140;17.184;2024-01-11T13:22:12;54.10;;;24.67;;
59876;SDS011;74472;51.140;17.184;2024-01-11T13:24:38;43.90;;;22.67;;
59876;SDS011;74472;51.140;17.184;2024-01-11T13:27:03;46.28;;;23.08;;
59876;SDS011;74472;51.140;17.184;2024-01-11T13:29:28;44.58;;;22.95;;
59876;SDS011;74472;51.140;17.184;2024-01-11T13:31:53;50.15;;;22.50;;
59876;SDS011;74472;51.140;17.184;2024-01-11T13:34:19;50.10;;;23.63;;
59876;SDS011;74472;51.140;17.184;2024-01-11T13:36:44;41.80;;;20.88;;
59876;SDS011;74472;51.140;17.184;2024-01-11T13:39:10;36.30;;;20.25;;
59876;SDS011;74472;51.140;17.184;2024-01-11T13:41:36;39.15;;;20.23;;
59876;SDS011;74472;51.140;17.184;2024-01-11T13:44:01;34.33;;;18.92;;
59876;SDS011;74472;51.140;17.184;2024-01-11T13:46:26;39.22;;;20.15;;
59876;SDS011;74472;51.140;17.184;2024-01-11T13:48:52;45.75;;;22.00;;
59876;SDS011;74472;51.140;17.184;2024-01-11T13:51:18;34.17;;;18.38;;
59876;SDS011;74472;51.140;17.184;2024-01-11T13:53:43;37.95;;;22.10;;
59876;SDS011;74472;51.140;17.184;2024-01-11T13:56:11;38.83;;;20.67;;
59876;SDS011;74472;51.140;17.184;2024-01-11T13:58:36;47.13;;;23.27;;